sensor_id;sensor_type;location;lat;lon;timestamp;P1;durP1;ratioP1;P2;durP2;ratioP2
63693;SDS011;49839;51.798;10.954;2023-04-01T07:09:14;4.25;;;0.60;;
63693;SDS011;49839;51.798;10.954;2023-04-01T10:37:47;0.85;;;0.20;;
63693;SDS011;49839;51.798;10.954;2023-04-01T13:41:29;3.42;;;0.50;;
63693;SDS011;49839;51.798;10.954;2023-04-01T14:24:52;1.50;;;0.47;;
63693;SDS011;49839;51.798;10.954;2023-04-01T14:30:20;0.90;;;0.50;;
63693;SDS011;49839;51.798;10.954;2023-04-01T14:33:01;1.95;;;1.00;;
63693;SDS011;49839;51.798;10.954;2023-04-01T14:40:58;1.20;;;0.35;;
63693;SDS011;49839;51.798;10.954;2023-04-01T14:43:40;3.80;;;0.40;;
63693;SDS011;49839;51.798;10.954;2023-04-01T14:48:53;2.00;;;0.77;;
63693;SDS011;49839;51.798;10.954;2023-04-01T14:51:28;1.73;;;0.70;;
63693;SDS011;49839;51.798;10.954;2023-04-01T14:54:04;4.25;;;1.40;;
63693;SDS011;49839;51.798;10.954;2023-04-01T14:56:48;2.28;;;0.80;;
63693;SDS011;49839;51.798;10.954;2023-04-01T14:59:25;2.45;;;0.82;;
63693;SDS011;49839;51.798;10.954;2023-04-01T15:01:56;2.33;;;0.80;;
63693;SDS011;49839;51.798;10.954;2023-04-01T15:04:43;1.70;;;0.80;;
63693;SDS011;49839;51.798;10.954;2023-04-01T15:10:28;2.03;;;0.70;;
63693;SDS011;49839;51.798;10.954;2023-04-01T15:13:12;3.10;;;1.20;;
63693;SDS011;49839;51.798;10.954;2023-04-01T15:15:47;3.38;;;1.35;;
63693;SDS011;49839;51.798;10.954;2023-04-01T15:18:30;3.08;;;1.20;;
63693;SDS011;49839;51.798;10.954;2023-04-01T15:21:10;3.97;;;1.23;;
63693;SDS011;49839;51.798;10.954;2023-04-01T15:23:48;5.18;;;1.95;;
63693;SDS011;49839;51.798;10.954;2023-04-01T15:26:27;4.32;;;1.38;;
63693;SDS011;49839;51.798;10.954;2023-04-01T15:29:22;2.67;;;1.10;;
63693;SDS011;49839;51.798;10.954;2023-04-01T15:32:02;2.70;;;0.55;;
63693;SDS011;49839;51.798;10.954;2023-04-01T15:34:43;1.10;;;0.47;;
63693;SDS011;49839;51.798;10.954;2023-04-01T15:37:21;2.05;;;0.30;;
63693;SDS011;49839;51.798;10.954;2023-04-01T15:39:56;2.13;;;0.52;;
63693;SDS011;49839;51.798;10.954;2023-04-01T15:42:35;2.10;;;0.52;;
63693;SDS011;49839;51.798;10.954;2023-04-01T15:45:22;1.85;;;0.50;;
63693;SDS011;49839;51.798;10.954;2023-04-01T15:48:01;0.88;;;0.40;;
63693;SDS011;49839;51.798;10.954;2023-04-01T15:50:40;2.65;;;1.00;;
63693;SDS011;49839;51.798;10.954;2023-04-01T15:56:14;0.52;;;0.30;;
63693;SDS011;49839;51.798;10.954;2023-04-01T15:58:52;3.28;;;0.60;;
63693;SDS011;49839;51.798;10.954;2023-04-01T16:01:34;1.35;;;0.60;;
63693;SDS011;49839;51.798;10.954;2023-04-01T16:06:49;4.68;;;0.60;;
63693;SDS011;49839;51.798;10.954;2023-04-01T16:09:31;3.30;;;0.63;;
63693;SDS011;49839;51.798;10.954;2023-04-01T16:12:11;3.05;;;0.60;;
63693;SDS011;49839;51.798;10.954;2023-04-01T16:14:49;2.50;;;0.95;;
63693;SDS011;49839;51.798;10.954;2023-04-01T16:17:31;5.88;;;2.22;;
63693;SDS011;49839;51.798;10.954;2023-04-01T16:20:14;4.38;;;1.88;;
63693;SDS011;49839;51.798;10.954;2023-04-01T16:22:49;3.35;;;1.10;;
63693;SDS011;49839;51.798;10.954;2023-04-01T16:25:26;2.97;;;0.47;;
63693;SDS011;49839;51.798;10.954;2023-04-01T16:28:09;0.75;;;0.40;;
63693;SDS011;49839;51.798;10.954;2023-04-01T16:30:46;1.00;;;0.40;;
63693;SDS011;49839;51.798;10.954;2023-04-01T16:33:24;1.30;;;0.25;;
63693;SDS011;49839;51.798;10.954;2023-04-01T16:36:05;0.75;;;0.10;;
63693;SDS011;49839;51.798;10.954;2023-04-01T16:38:39;1.20;;;0.20;;
63693;SDS011;49839;51.798;10.954;2023-04-01T16:41:15;1.55;;;0.20;;
63693;SDS011;49839;51.798;10.954;2023-04-01T16:43:46;4.53;;;1.55;;
63693;SDS011;49839;51.798;10.954;2023-04-01T16:46:33;1.95;;;0.80;;
63693;SDS011;49839;51.798;10.954;2023-04-01T16:49:15;1.67;;;0.50;;
63693;SDS011;49839;51.798;10.954;2023-04-01T16:51:52;1.17;;;0.50;;
63693;SDS011;49839;51.798;10.954;2023-04-01T16:54:27;0.85;;;0.50;;
63693;SDS011;49839;51.798;10.954;2023-04-01T16:57:02;1.33;;;0.70;;
63693;SDS011;49839;51.798;10.954;2023-04-01T16:59:34;2.17;;;0.60;;
63693;SDS011;49839;51.798;10.954;2023-04-01T17:02:04;1.85;;;0.77;;
63693;SDS011;49839;51.798;10.954;2023-04-01T17:04:40;1.00;;;0.50;;
63693;SDS011;49839;51.798;10.954;2023-04-01T17:07:13;1.83;;;0.98;;
63693;SDS011;49839;51.798;10.954;2023-04-01T17:09:54;2.33;;;1.00;;
63693;SDS011;49839;51.798;10.954;2023-04-01T17:12:32;2.40;;;1.20;;
63693;SDS011;49839;51.798;10.954;2023-04-01T17:15:07;2.75;;;1.67;;
63693;SDS011;49839;51.798;10.954;2023-04-01T17:17:49;2.67;;;1.90;;
63693;SDS011;49839;51.798;10.954;2023-04-01T17:20:29;3.60;;;2.20;;
63693;SDS011;49839;51.798;10.954;2023-04-01T17:23:05;4.30;;;2.08;;
63693;SDS011;49839;51.798;10.954;2023-04-01T17:25:47;5.72;;;2.47;;
63693;SDS011;49839;51.798;10.954;2023-04-01T17:28:27;4.13;;;1.95;;
63693;SDS011;49839;51.798;10.954;2023-04-01T17:31:09;3.83;;;2.25;;
63693;SDS011;49839;51.798;10.954;2023-04-01T17:33:44;7.20;;;3.80;;
63693;SDS011;49839;51.798;10.954;2023-04-01T17:36:24;5.07;;;3.33;;
63693;SDS011;49839;51.798;10.954;2023-04-01T17:39:09;4.60;;;3.00;;
63693;SDS011;49839;51.798;10.954;2023-04-01T17:41:54;5.47;;;3.58;;
63693;SDS011;49839;51.798;10.954;2023-04-01T17:44:32;4.35;;;2.83;;
63693;SDS011;49839;51.798;10.954;2023-04-01T17:47:14;5.10;;;3.60;;
63693;SDS011;49839;51.798;10.954;2023-04-01T17:49:52;4.32;;;3.03;;
63693;SDS011;49839;51.798;10.954;2023-04-01T17:52:31;4.13;;;2.97;;
63693;SDS011;49839;51.798;10.954;2023-04-01T17:55:22;4.82;;;3.20;;
63693;SDS011;49839;51.798;10.954;2023-04-01T17:58:02;5.05;;;3.70;;
63693;SDS011;49839;51.798;10.954;2023-04-01T18:00:37;5.90;;;3.58;;
63693;SDS011;49839;51.798;10.954;2023-04-01T18:03:20;4.95;;;3.20;;
63693;SDS011;49839;51.798;10.954;2023-04-01T18:06:01;3.83;;;2.67;;
63693;SDS011;49839;51.798;10.954;2023-04-01T18:08:40;2.63;;;1.48;;
63693;SDS011;49839;51.798;10.954;2023-04-01T18:11:21;4.88;;;3.25;;
63693;SDS011;49839;51.798;10.954;2023-04-01T18:14:22;5.03;;;3.78;;
63693;SDS011;49839;51.798;10.954;2023-04-01T18:17:03;5.15;;;3.03;;
63693;SDS011;49839;51.798;10.954;2023-04-01T18:19:46;6.18;;;3.55;;
63693;SDS011;49839;51.798;10.954;2023-04-01T18:22:26;4.20;;;3.05;;
63693;SDS011;49839;51.798;10.954;2023-04-01T18:25:04;5.10;;;3.17;;
63693;SDS011;49839;51.798;10.954;2023-04-01T18:27:40;5.95;;;4.13;;
63693;SDS011;49839;51.798;10.954;2023-04-01T18:30:11;4.97;;;3.35;;
63693;SDS011;49839;51.798;10.954;2023-04-01T18:35:14;4.70;;;2.97;;
63693;SDS011;49839;51.798;10.954;2023-04-01T18:37:47;4.00;;;2.63;;
63693;SDS011;49839;51.798;10.954;2023-04-01T18:40:23;4.00;;;2.67;;
63693;SDS011;49839;51.798;10.954;2023-04-01T18:43:08;6.30;;;3.65;;
63693;SDS011;49839;51.798;10.954;2023-04-01T18:45:40;5.22;;;3.58;;
63693;SDS011;49839;51.798;10.954;2023-04-01T18:48:15;4.93;;;3.15;;
63693;SDS011;49839;51.798;10.954;2023-04-01T18:50:54;4.40;;;2.63;;
63693;SDS011;49839;51.798;10.954;2023-04-01T18:53:27;6.10;;;3.03;;
63693;SDS011;49839;51.798;10.954;2023-04-01T18:56:04;5.65;;;3.85;;
63693;SDS011;49839;51.798;10.954;2023-04-01T18:58:34;7.88;;;4.60;;
63693;SDS011;49839;51.798;10.954;2023-04-01T19:01:05;5.07;;;3.10;;
63693;SDS011;49839;51.798;10.954;2023-04-01T19:03:40;5.53;;;3.88;;
63693;SDS011;49839;51.798;10.954;2023-04-01T19:06:17;4.50;;;2.95;;
63693;SDS011;49839;51.798;10.954;2023-04-01T19:08:49;4.93;;;3.13;;
63693;SDS011;49839;51.798;10.954;2023-04-01T19:11:26;6.20;;;3.90;;
63693;SDS011;49839;51.798;10.954;2023-04-01T19:14:03;4.63;;;3.20;;
63693;SDS011;49839;51.798;10.954;2023-04-01T19:16:43;5.13;;;2.80;;
63693;SDS011;49839;51.798;10.954;2023-04-01T19:19:27;3.97;;;2.50;;
63693;SDS011;49839;51.798;10.954;2023-04-01T19:22:11;3.17;;;1.98;;
63693;SDS011;49839;51.798;10.954;2023-04-01T19:24:56;4.03;;;2.40;;
63693;SDS011;49839;51.798;10.954;2023-04-01T19:27:39;2.85;;;1.95;;
63693;SDS011;49839;51.798;10.954;2023-04-01T19:30:19;3.47;;;2.08;;
63693;SDS011;49839;51.798;10.954;2023-04-01T19:35:35;5.30;;;2.10;;
63693;SDS011;49839;51.798;10.954;2023-04-01T19:38:12;4.25;;;2.60;;
63693;SDS011;49839;51.798;10.954;2023-04-01T19:40:50;3.95;;;2.53;;
63693;SDS011;49839;51.798;10.954;2023-04-01T19:43:28;2.63;;;1.50;;
63693;SDS011;49839;51.798;10.954;2023-04-01T19:46:07;2.30;;;1.27;;
63693;SDS011;49839;51.798;10.954;2023-04-01T19:48:44;5.18;;;2.55;;
63693;SDS011;49839;51.798;10.954;2023-04-01T19:51:23;3.63;;;2.08;;
63693;SDS011;49839;51.798;10.954;2023-04-01T19:53:56;4.15;;;2.65;;
63693;SDS011;49839;51.798;10.954;2023-04-01T19:56:30;3.03;;;1.92;;
63693;SDS011;49839;51.798;10.954;2023-04-01T19:59:05;4.18;;;2.47;;
63693;SDS011;49839;51.798;10.954;2023-04-01T20:01:41;5.63;;;2.55;;
63693;SDS011;49839;51.798;10.954;2023-04-01T20:04:14;4.35;;;2.55;;
63693;SDS011;49839;51.798;10.954;2023-04-01T20:06:48;4.10;;;2.40;;
63693;SDS011;49839;51.798;10.954;2023-04-01T20:09:26;3.33;;;1.83;;
63693;SDS011;49839;51.798;10.954;2023-04-01T20:12:05;3.40;;;1.83;;
63693;SDS011;49839;51.798;10.954;2023-04-01T20:14:44;3.65;;;2.15;;
63693;SDS011;49839;51.798;10.954;2023-04-01T20:17:16;1.90;;;1.13;;
63693;SDS011;49839;51.798;10.954;2023-04-01T20:19:51;3.00;;;1.90;;
63693;SDS011;49839;51.798;10.954;2023-04-01T20:22:24;3.80;;;1.73;;
63693;SDS011;49839;51.798;10.954;2023-04-01T20:24:59;2.47;;;1.10;;
63693;SDS011;49839;51.798;10.954;2023-04-01T20:27:35;2.50;;;1.42;;
63693;SDS011;49839;51.798;10.954;2023-04-01T20:30:29;2.92;;;1.55;;
63693;SDS011;49839;51.798;10.954;2023-04-01T20:33:09;2.63;;;1.45;;
63693;SDS011;49839;51.798;10.954;2023-04-01T20:35:50;1.63;;;1.30;;
63693;SDS011;49839;51.798;10.954;2023-04-01T20:41:32;2.53;;;1.50;;
63693;SDS011;49839;51.798;10.954;2023-04-01T20:44:08;2.10;;;1.45;;
63693;SDS011;49839;51.798;10.954;2023-04-01T20:46:46;2.40;;;1.33;;
63693;SDS011;49839;51.798;10.954;2023-04-01T20:52:15;2.22;;;1.40;;
63693;SDS011;49839;51.798;10.954;2023-04-01T20:54:56;1.55;;;1.10;;
63693;SDS011;49839;51.798;10.954;2023-04-01T20:57:42;2.80;;;1.40;;
63693;SDS011;49839;51.798;10.954;2023-04-01T21:00:19;2.08;;;1.23;;
63693;SDS011;49839;51.798;10.954;2023-04-01T21:03:01;2.38;;;1.30;;
63693;SDS011;49839;51.798;10.954;2023-04-01T21:08:36;1.75;;;1.13;;
63693;SDS011;49839;51.798;10.954;2023-04-01T21:11:16;1.73;;;1.23;;
63693;SDS011;49839;51.798;10.954;2023-04-01T21:13:55;1.52;;;0.90;;
63693;SDS011;49839;51.798;10.954;2023-04-01T21:16:32;1.25;;;0.82;;
63693;SDS011;49839;51.798;10.954;2023-04-01T21:19:12;0.77;;;0.63;;
63693;SDS011;49839;51.798;10.954;2023-04-01T21:24:45;1.58;;;0.88;;
63693;SDS011;49839;51.798;10.954;2023-04-01T21:27:31;1.92;;;1.05;;
63693;SDS011;49839;51.798;10.954;2023-04-01T21:30:18;2.22;;;1.48;;
63693;SDS011;49839;51.798;10.954;2023-04-01T21:33:00;2.50;;;1.33;;
63693;SDS011;49839;51.798;10.954;2023-04-01T21:35:43;2.95;;;1.50;;
63693;SDS011;49839;51.798;10.954;2023-04-01T21:38:27;2.03;;;1.30;;
63693;SDS011;49839;51.798;10.954;2023-04-01T21:44:05;1.55;;;0.93;;
63693;SDS011;49839;51.798;10.954;2023-04-01T21:46:56;1.05;;;0.52;;
63693;SDS011;49839;51.798;10.954;2023-04-01T21:49:52;2.33;;;1.00;;
63693;SDS011;49839;51.798;10.954;2023-04-01T21:52:48;1.20;;;0.80;;
63693;SDS011;49839;51.798;10.954;2023-04-01T21:58:21;2.03;;;1.20;;
63693;SDS011;49839;51.798;10.954;2023-04-01T22:01:18;3.17;;;1.33;;
63693;SDS011;49839;51.798;10.954;2023-04-01T22:04:04;2.75;;;1.75;;
63693;SDS011;49839;51.798;10.954;2023-04-01T22:06:45;3.28;;;1.83;;
63693;SDS011;49839;51.798;10.954;2023-04-01T22:09:23;3.47;;;1.88;;
63693;SDS011;49839;51.798;10.954;2023-04-01T22:11:55;4.07;;;2.05;;
63693;SDS011;49839;51.798;10.954;2023-04-01T22:14:31;3.45;;;1.73;;
63693;SDS011;49839;51.798;10.954;2023-04-01T22:17:03;3.20;;;1.92;;
63693;SDS011;49839;51.798;10.954;2023-04-01T22:19:40;3.00;;;1.27;;
63693;SDS011;49839;51.798;10.954;2023-04-01T22:22:17;5.40;;;2.13;;
63693;SDS011;49839;51.798;10.954;2023-04-01T22:24:53;3.25;;;1.83;;
63693;SDS011;49839;51.798;10.954;2023-04-01T22:27:31;3.78;;;1.23;;
63693;SDS011;49839;51.798;10.954;2023-04-01T22:30:09;3.25;;;1.50;;
63693;SDS011;49839;51.798;10.954;2023-04-01T22:32:40;4.80;;;2.15;;
63693;SDS011;49839;51.798;10.954;2023-04-01T22:35:13;3.22;;;1.85;;
63693;SDS011;49839;51.798;10.954;2023-04-01T22:37:52;2.60;;;1.38;;
63693;SDS011;49839;51.798;10.954;2023-04-01T22:40:29;3.83;;;1.90;;
63693;SDS011;49839;51.798;10.954;2023-04-01T22:48:10;2.15;;;1.20;;
63693;SDS011;49839;51.798;10.954;2023-04-01T22:50:46;3.28;;;1.67;;
63693;SDS011;49839;51.798;10.954;2023-04-01T22:53:24;2.13;;;1.20;;
63693;SDS011;49839;51.798;10.954;2023-04-01T22:56:05;3.22;;;1.05;;
63693;SDS011;49839;51.798;10.954;2023-04-01T22:58:38;3.15;;;1.48;;
63693;SDS011;49839;51.798;10.954;2023-04-01T23:01:11;2.08;;;0.90;;
63693;SDS011;49839;51.798;10.954;2023-04-01T23:03:43;2.88;;;1.50;;
63693;SDS011;49839;51.798;10.954;2023-04-01T23:06:15;2.70;;;1.50;;
63693;SDS011;49839;51.798;10.954;2023-04-01T23:11:41;1.88;;;1.13;;
63693;SDS011;49839;51.798;10.954;2023-04-01T23:14:23;2.47;;;1.38;;
63693;SDS011;49839;51.798;10.954;2023-04-01T23:17:02;7.82;;;1.80;;
63693;SDS011;49839;51.798;10.954;2023-04-01T23:19:41;5.07;;;2.28;;
63693;SDS011;49839;51.798;10.954;2023-04-01T23:22:20;2.55;;;1.60;;
63693;SDS011;49839;51.798;10.954;2023-04-01T23:24:55;2.72;;;1.25;;
63693;SDS011;49839;51.798;10.954;2023-04-01T23:27:33;2.40;;;1.15;;
63693;SDS011;49839;51.798;10.954;2023-04-01T23:30:11;2.97;;;1.42;;
63693;SDS011;49839;51.798;10.954;2023-04-01T23:33:19;3.13;;;1.65;;
63693;SDS011;49839;51.798;10.954;2023-04-01T23:35:49;3.55;;;1.75;;
63693;SDS011;49839;51.798;10.954;2023-04-01T23:38:18;4.07;;;1.88;;
63693;SDS011;49839;51.798;10.954;2023-04-01T23:40:47;2.90;;;1.40;;
63693;SDS011;49839;51.798;10.954;2023-04-01T23:43:21;2.83;;;1.60;;
63693;SDS011;49839;51.798;10.954;2023-04-01T23:45:51;5.85;;;2.15;;
63693;SDS011;49839;51.798;10.954;2023-04-01T23:48:21;3.47;;;1.88;;
63693;SDS011;49839;51.798;10.954;2023-04-01T23:50:52;4.40;;;2.35;;
63693;SDS011;49839;51.798;10.954;2023-04-01T23:53:21;2.95;;;1.70;;
63693;SDS011;49839;51.798;10.954;2023-04-01T23:55:52;4.28;;;2.35;;
63693;SDS011;49839;51.798;10.954;2023-04-01T23:58:24;4.15;;;1.90;;
